Time;durP1;ratioP1;P1;durP2;ratioP2;P2;SDS_P1;SDS_P2;PMS_P1;PMS_P2;Temp;Humidity;BMP_temperature;BMP_pressure;BME280_temperature;BME280_humidity;BME280_pressure;Samples;Min_cycle;Max_cycle;Signal;HPM_P1;HPM_P2
2023/01/24 00:01:42;;;;;;;4.85;4.45;;;19.70;50.10;;;;;;5014431;28;20181;-67
2023/01/24 00:04:07;;;;;;;5.05;4.65;;;19.70;49.80;;;;;;4995562;28;20223;-66
2023/01/24 00:06:33;;;;;;;5.50;4.95;;;19.70;49.80;;;;;;5012321;28;20194;-66
2023/01/24 00:08:59;;;;;;;5.38;4.93;;;19.70;49.80;;;;;;5012027;28;20196;-66
2023/01/24 00:11:25;;;;;;;4.72;4.28;;;19.70;49.80;;;;;;5012317;28;20196;-65
2023/01/24 00:13:50;;;;;;;4.80;4.03;;;19.70;49.70;;;;;;4995792;28;20207;-67
2023/01/24 00:16:20;;;;;;;4.70;4.30;;;19.70;49.70;;;;;;5013409;28;20211;-66
2023/01/24 00:18:47;;;;;;;5.28;4.32;;;19.70;49.70;;;;;;5011775;28;20188;-65
2023/01/24 00:21:23;;;;;;;4.63;4.22;;;19.70;49.70;;;;;;5004058;28;20230;-66
2023/01/24 00:23:52;;;;;;;4.50;4.10;;;19.70;49.70;;;;;;5011899;28;20218;-67
2023/01/24 00:26:20;;;;;;;4.63;4.22;;;19.70;49.70;;;;;;5012066;28;20275;-67
2023/01/24 00:28:46;;;;;;;4.55;4.15;;;19.70;49.70;;;;;;5012005;28;20270;-68
2023/01/24 00:31:13;;;;;;;5.18;4.68;;;19.70;49.70;;;;;;5005049;28;20195;-67
2023/01/24 00:33:39;;;;;;;4.43;4.03;;;19.70;49.70;;;;;;4995646;28;20208;-66
2023/01/24 00:36:06;;;;;;;4.80;4.40;;;19.60;49.60;;;;;;5011730;28;20318;-66
2023/01/24 00:38:32;;;;;;;5.00;4.50;;;19.70;49.80;;;;;;4995382;28;20188;-67
2023/01/24 00:40:58;;;;;;;5.22;4.72;;;19.70;49.70;;;;;;4995124;28;20331;-65
2023/01/24 00:43:26;;;;;;;4.10;3.70;;;19.70;49.70;;;;;;5012813;28;20204;-67
2023/01/24 00:45:53;;;;;;;4.63;4.22;;;19.60;49.70;;;;;;4995675;28;20626;-66
2023/01/24 00:48:21;;;;;;;4.40;4.00;;;19.60;49.70;;;;;;5011882;28;20314;-66
2023/01/24 00:50:46;;;;;;;4.90;4.38;;;19.70;49.70;;;;;;5011425;28;20275;-67
2023/01/24 00:53:12;;;;;;;4.57;4.10;;;19.70;49.70;;;;;;4987441;28;20330;-66
2023/01/24 00:55:44;;;;;;;4.78;4.30;;;19.70;49.80;;;;;;5011717;28;20216;-65
2023/01/24 00:58:12;;;;;;;5.13;4.63;;;19.60;49.70;;;;;;5011342;28;20180;-67
2023/01/24 01:00:39;;;;;;;4.32;3.90;;;19.70;49.70;;;;;;5011507;28;20283;-67
2023/01/24 01:03:14;;;;;;;4.70;4.30;;;19.70;49.70;;;;;;4995019;28;20230;-67
2023/01/24 01:05:41;;;;;;;4.68;4.28;;;19.70;49.70;;;;;;5010936;28;20192;-66
2023/01/24 01:08:07;;;;;;;4.53;4.13;;;19.70;49.70;;;;;;5010946;28;20275;-66
2023/01/24 01:10:33;;;;;;;4.45;4.10;;;19.70;49.70;;;;;;4994761;28;20277;-66
2023/01/24 01:12:59;;;;;;;4.80;4.32;;;19.70;49.70;;;;;;5011254;28;20223;-67
2023/01/24 01:15:24;;;;;;;4.22;3.83;;;19.70;49.70;;;;;;4995129;28;20200;-67
2023/01/24 01:17:50;;;;;;;4.82;4.43;;;19.70;49.70;;;;;;5011142;28;20196;-66
2023/01/24 01:20:16;;;;;;;4.85;4.35;;;19.70;49.70;;;;;;5011398;28;20199;-66
2023/01/24 01:22:42;;;;;;;4.88;4.38;;;19.70;49.70;;;;;;5011333;28;20218;-66
2023/01/24 01:25:08;;;;;;;4.55;4.15;;;19.70;49.70;;;;;;5011117;28;20194;-67
2023/01/24 01:27:34;;;;;;;4.63;4.22;;;19.70;49.70;;;;;;5011025;28;20192;-67
2023/01/24 01:30:00;;;;;;;4.20;3.90;;;19.70;49.70;;;;;;4994767;28;20243;-67
2023/01/24 01:32:26;;;;;;;4.80;4.32;;;19.70;49.70;;;;;;5011151;28;20204;-66
2023/01/24 01:34:52;;;;;;;4.65;4.18;;;19.70;49.70;;;;;;4994813;28;20203;-64
2023/01/24 01:37:18;;;;;;;4.25;3.85;;;19.70;49.70;;;;;;5010937;28;20211;-66
2023/01/24 01:39:44;;;;;;;4.90;4.50;;;19.70;49.70;;;;;;4994595;28;20279;-67
2023/01/24 01:42:09;;;;;;;4.18;3.78;;;19.70;49.70;;;;;;5011069;28;20190;-67
2023/01/24 01:44:38;;;;;;;4.50;4.10;;;19.70;49.70;;;;;;5011044;28;20199;-66
2023/01/24 01:47:25;;;;;;;4.47;4.10;;;19.70;49.70;;;;;;5011150;28;20219;-66
2023/01/24 01:50:14;;;;;;;3.95;3.65;;;19.70;49.60;;;;;;4994401;28;20192;-67
2023/01/24 01:52:42;;;;;;;4.38;3.97;;;19.70;49.70;;;;;;4994976;28;20220;-66
2023/01/24 01:55:14;;;;;;;4.45;4.05;;;19.70;49.70;;;;;;5010952;28;20246;-67
2023/01/24 01:57:41;;;;;;;4.55;4.15;;;19.70;49.70;;;;;;5010842;28;20215;-67
2023/01/24 02:00:16;;;;;;;4.30;3.90;;;19.70;49.70;;;;;;5010468;28;20250;-66
2023/01/24 02:02:50;;;;;;;4.75;4.05;;;19.70;49.60;;;;;;4994439;28;20219;-66
2023/01/24 02:05:24;;;;;;;4.78;4.38;;;19.70;49.70;;;;;;5019920;28;20224;-66
2023/01/24 02:08:05;;;;;;;4.35;3.95;;;19.70;49.70;;;;;;4994292;28;20269;-67
2023/01/24 02:11:37;;;;;;;4.65;4.25;;;19.70;49.70;;;;;;5010585;28;20583;-67
2023/01/24 02:13:19;;;;;;;4.13;3.75;;;19.70;49.70;;;;;;5010364;28;20204;-66
2023/01/24 02:16:03;;;;;;;4.93;4.47;;;19.70;49.70;;;;;;5010720;28;20215;-66
2023/01/24 02:18:35;;;;;;;4.40;4.00;;;19.70;49.70;;;;;;5023238;28;20188;-66
2023/01/24 02:21:11;;;;;;;4.32;4.00;;;19.70;49.70;;;;;;5029358;28;20184;-67
2023/01/24 02:24:31;;;;;;;4.35;3.95;;;19.70;50.20;;;;;;4997883;28;20207;-66
2023/01/24 02:26:57;;;;;;;4.57;4.18;;;19.70;49.70;;;;;;4961970;28;20206;-66
2023/01/24 02:29:22;;;;;;;4.70;4.30;;;19.70;49.80;;;;;;4949956;28;20200;-67
2023/01/24 02:32:02;;;;;;;4.68;4.28;;;19.70;49.70;;;;;;4975280;28;20215;-67
2023/01/24 02:34:29;;;;;;;4.25;3.85;;;19.70;49.70;;;;;;4997562;28;20270;-67
2023/01/24 02:37:09;;;;;;;3.97;3.67;;;19.70;49.70;;;;;;5013864;28;20220;-67
2023/01/24 02:39:49;;;;;;;4.30;3.90;;;19.70;49.70;;;;;;5014355;28;20199;-66
2023/01/24 02:42:23;;;;;;;4.38;3.97;;;19.70;49.70;;;;;;5022678;28;20211;-66
2023/01/24 02:45:18;;;;;;;4.22;3.83;;;19.70;49.70;;;;;;5013918;28;20274;-67
2023/01/24 02:47:49;;;;;;;4.38;4.03;;;19.70;49.70;;;;;;4997528;28;20251;-66
2023/01/24 02:50:22;;;;;;;4.05;3.75;;;19.70;49.70;;;;;;5006034;28;20245;-67
2023/01/24 02:58:05;;;;;;;4.25;3.85;;;19.70;49.70;;;;;;5014043;28;20265;-67
2023/01/24 02:58:20;;;;;;;3.83;3.53;;;19.70;49.70;;;;;;5007848;28;20314;-67
2023/01/24 03:00:46;;;;;;;4.22;3.83;;;19.70;49.70;;;;;;5013386;28;20187;-65
2023/01/24 03:03:15;;;;;;;4.55;4.15;;;19.70;49.70;;;;;;5014722;28;20215;-66
2023/01/24 03:05:56;;;;;;;4.13;3.72;;;19.70;49.70;;;;;;4997293;28;20196;-66
2023/01/24 03:08:25;;;;;;;3.88;3.58;;;19.70;49.70;;;;;;5013782;28;20192;-67
2023/01/24 03:10:55;;;;;;;4.32;3.92;;;19.70;49.70;;;;;;5013279;28;20192;-66
2023/01/24 03:35:27;;;;;;;3.88;3.58;;;19.70;49.80;;;;;;5017867;28;20216;-66
2023/01/24 03:40:38;;;;;;;3.97;3.25;;;19.70;49.80;;;;;;5012710;28;20703;-67
2023/01/24 03:43:04;;;;;;;4.07;3.67;;;19.70;49.80;;;;;;5012684;28;20247;-65
2023/01/24 03:45:37;;;;;;;3.90;3.50;;;19.60;49.60;;;;;;5012809;28;20283;-66
2023/01/24 03:48:12;;;;;;;3.38;3.13;;;19.60;49.70;;;;;;5013007;28;20202;-66
2023/01/24 03:53:33;;;;;;;3.78;3.47;;;19.60;49.60;;;;;;5024086;28;20216;-66
2023/01/24 03:56:01;;;;;;;3.95;3.65;;;19.70;49.70;;;;;;4995470;28;20731;-66
2023/01/24 03:58:33;;;;;;;3.40;3.10;;;19.60;49.60;;;;;;4998940;28;20234;-66
2023/01/24 04:01:02;;;;;;;3.53;3.22;;;19.70;49.70;;;;;;5012405;28;20311;-66
2023/01/24 04:03:49;;;;;;;3.70;3.40;;;19.60;49.60;;;;;;4990795;28;20266;-65
2023/01/24 04:06:17;;;;;;;3.17;2.97;;;19.60;49.70;;;;;;5012548;28;20191;-65
2023/01/24 04:08:43;;;;;;;4.00;3.67;;;19.60;49.60;;;;;;4996627;28;20287;-67
2023/01/24 04:11:09;;;;;;;3.70;3.40;;;19.60;49.60;;;;;;4995743;28;20282;-66
2023/01/24 04:13:34;;;;;;;3.65;3.35;;;19.60;49.60;;;;;;5012103;28;20254;-67
2023/01/24 04:16:00;;;;;;;3.75;3.45;;;19.60;49.70;;;;;;5012081;28;20224;-65
2023/01/24 04:18:44;;;;;;;3.92;3.63;;;19.60;49.60;;;;;;4997854;28;20191;-67
2023/01/24 04:21:10;;;;;;;4.07;3.75;;;19.60;49.60;;;;;;5011926;28;20265;-67
2023/01/24 04:23:37;;;;;;;3.78;3.45;;;19.60;49.60;;;;;;5002277;28;20208;-66
2023/01/24 04:26:03;;;;;;;3.78;3.47;;;19.70;49.70;;;;;;5010043;28;20566;-67
2023/01/24 04:28:31;;;;;;;3.85;3.50;;;19.70;49.70;;;;;;4996252;28;20234;-67
2023/01/24 04:31:02;;;;;;;3.50;3.30;;;19.60;49.60;;;;;;4995801;28;20192;-66
2023/01/24 04:33:56;;;;;;;3.83;3.53;;;19.70;49.70;;;;;;4999536;28;20215;-66
2023/01/24 04:36:25;;;;;;;3.67;3.38;;;19.70;50.30;;;;;;5011790;28;20591;-66
2023/01/24 04:38:51;;;;;;;3.55;3.25;;;19.60;49.60;;;;;;4995429;28;20675;-65
2023/01/24 04:41:23;;;;;;;3.65;3.35;;;19.60;49.60;;;;;;5010952;28;20188;-67
2023/01/24 04:43:49;;;;;;;3.40;3.10;;;19.60;50.20;;;;;;5011976;28;20291;-67
2023/01/24 04:46:15;;;;;;;3.83;3.53;;;19.60;49.60;;;;;;4995696;28;20650;-67
2023/01/24 04:48:51;;;;;;;3.40;3.10;;;19.60;49.60;;;;;;4996614;28;20188;-67
2023/01/24 04:51:17;;;;;;;3.60;3.30;;;19.60;49.60;;;;;;4995618;28;20195;-66
2023/01/24 04:53:44;;;;;;;3.65;3.35;;;19.60;49.60;;;;;;4995717;28;20261;-67
2023/01/24 04:56:12;;;;;;;3.20;2.90;;;19.60;49.60;;;;;;4995691;28;20243;-66
2023/01/24 04:58:38;;;;;;;3.67;3.38;;;19.60;49.60;;;;;;4995223;28;20188;-66
2023/01/24 05:01:05;;;;;;;3.28;3.05;;;19.60;49.60;;;;;;4995182;28;20690;-66
2023/01/24 05:03:35;;;;;;;3.50;3.20;;;19.60;49.60;;;;;;5017691;23;20237;-63
2023/01/24 05:06:02;;;;;;;3.53;3.22;;;19.60;49.60;;;;;;4975610;28;20189;-65
2023/01/24 05:08:29;;;;;;;3.20;2.95;;;19.60;49.60;;;;;;4959794;28;20196;-66
2023/01/24 05:10:55;;;;;;;3.17;2.88;;;19.60;49.60;;;;;;4959560;28;20197;-66
2023/01/24 05:13:22;;;;;;;3.25;2.95;;;19.60;49.60;;;;;;4955448;28;20213;-64
2023/01/24 05:15:50;;;;;;;3.50;3.20;;;19.60;49.60;;;;;;4959232;28;20216;-64
2023/01/24 05:18:17;;;;;;;3.00;2.80;;;19.60;49.60;;;;;;4959271;28;20194;-65
2023/01/24 05:20:44;;;;;;;3.35;3.03;;;19.70;49.70;;;;;;4959165;28;20192;-65
2023/01/24 05:23:11;;;;;;;3.83;3.53;;;19.60;49.60;;;;;;4959412;28;20212;-66
2023/01/24 05:25:41;;;;;;;2.95;2.75;;;19.60;49.60;;;;;;4959855;28;20573;-65
2023/01/24 05:28:06;;;;;;;3.50;3.20;;;19.60;49.60;;;;;;4951420;28;20189;-65
2023/01/24 05:30:37;;;;;;;3.72;3.42;;;19.60;49.60;;;;;;4970022;28;20192;-64
2023/01/24 05:33:14;;;;;;;3.55;3.25;;;19.60;49.60;;;;;;4983415;28;20243;-65
2023/01/24 05:35:40;;;;;;;3.30;2.97;;;19.60;49.60;;;;;;4966763;28;20216;-64
2023/01/24 05:38:06;;;;;;;3.05;2.85;;;19.60;49.60;;;;;;4967227;28;20569;-66
2023/01/24 05:40:33;;;;;;;3.60;3.30;;;19.60;49.60;;;;;;4959370;28;20200;-65
2023/01/24 05:42:59;;;;;;;3.45;3.15;;;19.60;49.60;;;;;;4975153;28;20205;-66
2023/01/24 05:45:24;;;;;;;3.50;3.20;;;19.60;49.60;;;;;;4974946;28;20189;-66
2023/01/24 05:47:52;;;;;;;2.97;2.78;;;19.60;49.60;;;;;;4958987;28;20185;-66
2023/01/24 05:50:18;;;;;;;3.53;3.22;;;19.60;49.60;;;;;;4955358;28;20189;-65
2023/01/24 05:52:49;;;;;;;3.53;3.22;;;19.60;49.60;;;;;;4961714;28;20275;-66
2023/01/24 05:55:15;;;;;;;3.22;2.92;;;19.60;49.60;;;;;;4962873;28;20192;-66
2023/01/24 05:57:49;;;;;;;3.40;3.10;;;19.60;49.50;;;;;;4978887;28;20239;-67
2023/01/24 06:00:15;;;;;;;3.30;3.10;;;19.60;49.60;;;;;;4996478;28;20232;-65
2023/01/24 06:02:48;;;;;;;3.08;2.88;;;19.60;49.60;;;;;;4970609;28;20213;-66
2023/01/24 06:05:14;;;;;;;3.70;3.40;;;19.60;49.60;;;;;;4978679;28;20251;-66
2023/01/24 06:07:40;;;;;;;3.45;3.15;;;19.60;49.60;;;;;;4962678;28;20185;-66
2023/01/24 06:10:06;;;;;;;2.83;2.63;;;19.60;49.60;;;;;;4976241;28;20204;-65
2023/01/24 06:12:44;;;;;;;3.70;3.40;;;19.60;49.50;;;;;;4959590;28;20213;-65
2023/01/24 06:15:10;;;;;;;2.95;2.65;;;19.60;49.50;;;;;;4943468;28;20185;-66
2023/01/24 06:17:36;;;;;;;3.35;3.05;;;19.60;49.50;;;;;;4965302;28;20252;-66
2023/01/24 06:20:02;;;;;;;3.50;3.00;;;19.60;49.60;;;;;;4962174;28;20189;-66
2023/01/24 06:22:52;;;;;;;3.50;3.20;;;19.60;49.60;;;;;;4978027;28;20188;-64
2023/01/24 06:25:24;;;;;;;2.90;2.70;;;19.60;49.60;;;;;;4961710;28;20227;-66
2023/01/24 06:27:52;;;;;;;3.47;3.17;;;19.60;49.60;;;;;;4974268;28;20189;-66
2023/01/24 06:30:19;;;;;;;2.92;2.72;;;19.60;49.60;;;;;;4956238;28;20182;-66
2023/01/24 06:33:25;;;;;;;3.47;3.17;;;19.60;49.60;;;;;;4958447;28;20280;-65
2023/01/24 06:36:41;;;;;;;3.50;3.20;;;19.60;49.60;;;;;;4958165;28;20252;-66
2023/01/24 06:39:14;;;;;;;3.50;3.20;;;19.60;49.60;;;;;;4975440;28;20193;-66
2023/01/24 06:41:41;;;;;;;3.35;3.10;;;19.60;49.60;;;;;;4961287;28;20208;-65
2023/01/24 06:44:11;;;;;;;3.60;3.30;;;19.60;49.60;;;;;;4961270;28;20296;-66
2023/01/24 06:46:36;;;;;;;3.58;3.28;;;19.60;49.60;;;;;;4953828;28;20200;-66
2023/01/24 06:49:02;;;;;;;3.70;3.40;;;19.60;49.60;;;;;;4975209;28;20192;-67
2023/01/24 06:51:28;;;;;;;3.25;2.85;;;19.60;49.60;;;;;;4962373;28;20677;-66
2023/01/24 06:53:54;;;;;;;3.65;3.35;;;19.60;49.60;;;;;;4974881;28;20244;-66
2023/01/24 06:56:19;;;;;;;3.35;3.05;;;19.60;49.60;;;;;;4993855;28;20220;-66
2023/01/24 06:58:45;;;;;;;2.92;2.72;;;19.60;49.60;;;;;;4972572;28;20185;-65
2023/01/24 07:01:11;;;;;;;3.63;3.03;;;19.50;49.50;;;;;;4956939;28;20188;-66
2023/01/24 07:03:36;;;;;;;3.80;3.50;;;19.60;49.60;;;;;;4967231;28;20217;-66
2023/01/24 07:06:02;;;;;;;3.80;3.50;;;19.60;49.60;;;;;;4965152;28;20201;-66
2023/01/24 07:08:28;;;;;;;3.30;3.00;;;19.50;49.60;;;;;;4941980;28;20212;-67
2023/01/24 07:10:57;;;;;;;3.50;3.17;;;19.60;49.60;;;;;;4953143;28;20248;-66
2023/01/24 07:13:23;;;;;;;3.17;2.90;;;19.60;49.70;;;;;;4960983;28;20597;-67
2023/01/24 07:15:49;;;;;;;3.42;3.13;;;19.60;49.70;;;;;;4960640;28;20216;-66
2023/01/24 07:18:18;;;;;;;3.33;3.03;;;19.50;49.60;;;;;;4960837;28;20215;-66
2023/01/24 07:20:44;;;;;;;3.42;3.13;;;19.60;50.20;;;;;;4976907;28;20272;-66
2023/01/24 07:23:28;;;;;;;3.25;2.95;;;19.60;49.60;;;;;;4976688;28;20661;-66
2023/01/24 07:25:55;;;;;;;3.28;2.97;;;19.50;49.60;;;;;;4976847;28;20196;-67
2023/01/24 07:28:20;;;;;;;3.55;3.25;;;19.60;49.70;;;;;;4958410;28;20216;-65
2023/01/24 07:30:48;;;;;;;3.78;3.47;;;19.60;49.70;;;;;;4957083;28;20201;-67
2023/01/24 07:33:15;;;;;;;3.53;3.22;;;19.50;49.60;;;;;;4974636;28;20281;-66
2023/01/24 07:35:42;;;;;;;3.63;3.33;;;19.60;49.70;;;;;;4941214;28;20194;-66
2023/01/24 07:38:08;;;;;;;3.90;3.60;;;19.60;49.70;;;;;;4957069;28;20189;-67
2023/01/24 07:40:36;;;;;;;3.90;3.60;;;19.60;49.70;;;;;;4957192;28;20185;-66
2023/01/24 07:43:03;;;;;;;3.47;3.17;;;19.60;49.70;;;;;;4957074;28;20216;-65
2023/01/24 07:45:30;;;;;;;3.20;2.80;;;19.60;50.30;;;;;;4967449;28;20190;-66
2023/01/24 07:47:59;;;;;;;3.22;2.92;;;19.60;49.70;;;;;;4958014;28;20185;-66
2023/01/24 07:50:27;;;;;;;3.97;3.67;;;19.60;49.60;;;;;;4975757;28;20236;-67
2023/01/24 07:52:54;;;;;;;3.85;3.45;;;19.60;49.70;;;;;;4993582;28;20216;-66
2023/01/24 07:55:21;;;;;;;3.88;3.53;;;19.50;49.60;;;;;;4976295;28;20197;-67
2023/01/24 07:57:47;;;;;;;3.72;3.30;;;19.50;49.60;;;;;;4976042;28;20221;-67
2023/01/24 08:00:14;;;;;;;3.90;3.60;;;19.60;49.70;;;;;;4975892;28;20208;-66
2023/01/24 08:02:44;;;;;;;3.78;3.47;;;19.60;49.70;;;;;;4959901;28;20220;-66
2023/01/24 08:05:11;;;;;;;3.78;3.47;;;19.60;49.70;;;;;;4975725;28;20200;-67
2023/01/24 08:07:37;;;;;;;3.45;3.15;;;19.50;49.60;;;;;;4976045;28;20203;-66
2023/01/24 08:10:04;;;;;;;3.67;3.38;;;19.60;49.70;;;;;;4959870;28;20670;-66
2023/01/24 08:12:30;;;;;;;3.70;3.40;;;19.60;49.80;;;;;;4975925;28;20239;-67
2023/01/24 08:14:55;;;;;;;3.78;3.47;;;19.60;49.70;;;;;;4975699;28;20294;-66
2023/01/24 08:17:21;;;;;;;3.38;3.08;;;19.60;49.80;;;;;;4975464;28;20357;-67
2023/01/24 08:19:47;;;;;;;3.58;3.22;;;19.60;49.70;;;;;;4959710;28;20581;-67
2023/01/24 08:22:12;;;;;;;3.50;3.20;;;19.60;49.70;;;;;;4952295;28;20177;-67
2023/01/24 08:24:38;;;;;;;3.63;3.33;;;19.60;49.70;;;;;;4952050;28;20221;-67
2023/01/24 08:27:05;;;;;;;3.40;3.10;;;19.60;49.80;;;;;;4974457;28;20197;-66
2023/01/24 08:29:31;;;;;;;3.30;3.00;;;19.60;49.80;;;;;;4975559;28;20339;-67
2023/01/24 08:31:58;;;;;;;3.47;3.17;;;19.60;49.80;;;;;;4959129;28;20189;-66
2023/01/24 08:34:24;;;;;;;3.75;3.45;;;19.60;49.80;;;;;;4956369;28;20213;-66
2023/01/24 08:36:50;;;;;;;3.50;3.20;;;19.60;49.80;;;;;;4972241;28;20271;-66
2023/01/24 08:39:16;;;;;;;3.33;3.08;;;19.60;49.70;;;;;;4956232;28;20185;-66
2023/01/24 08:41:46;;;;;;;3.78;3.38;;;19.60;49.70;;;;;;4956327;28;20570;-67
2023/01/24 08:44:15;;;;;;;3.60;3.30;;;19.60;49.70;;;;;;4963828;28;20216;-66
2023/01/24 08:46:42;;;;;;;3.42;3.13;;;19.60;49.60;;;;;;4960171;28;20579;-66
2023/01/24 08:49:10;;;;;;;3.60;3.30;;;19.60;49.70;;;;;;4974689;28;20203;-66
2023/01/24 08:51:36;;;;;;;4.38;3.65;;;19.60;49.70;;;;;;4975101;28;20200;-66
2023/01/24 08:54:05;;;;;;;3.50;3.20;;;19.60;49.70;;;;;;4975208;28;20216;-66
2023/01/24 08:56:31;;;;;;;3.55;3.25;;;19.60;49.70;;;;;;4961392;28;20713;-64
2023/01/24 08:58:57;;;;;;;4.70;3.10;;;19.60;49.60;;;;;;4939558;28;20190;-66
2023/01/24 09:01:23;;;;;;;3.65;3.35;;;19.60;49.60;;;;;;4973040;28;20185;-67
2023/01/24 09:03:48;;;;;;;3.85;3.50;;;19.60;49.60;;;;;;4939687;28;20274;-67
2023/01/24 09:06:14;;;;;;;3.63;3.33;;;19.60;49.60;;;;;;4973083;28;20280;-65
2023/01/24 09:08:40;;;;;;;3.60;3.33;;;19.60;49.60;;;;;;4946723;28;20232;-66
2023/01/24 09:11:06;;;;;;;3.97;3.58;;;19.60;49.60;;;;;;4972494;28;20192;-66
2023/01/24 09:13:32;;;;;;;3.28;2.97;;;19.60;49.60;;;;;;4972757;28;20205;-66
2023/01/24 09:15:58;;;;;;;3.92;3.60;;;19.60;49.60;;;;;;4963638;28;20245;-66
2023/01/24 09:18:25;;;;;;;3.55;3.25;;;19.60;49.60;;;;;;4939283;28;20280;-66
2023/01/24 09:20:51;;;;;;;3.70;3.40;;;19.60;49.60;;;;;;4955415;28;20236;-66
2023/01/24 09:23:17;;;;;;;4.00;3.60;;;19.60;49.60;;;;;;4956848;28;20209;-66
2023/01/24 09:25:51;;;;;;;3.47;3.17;;;19.60;49.70;;;;;;4982006;28;20236;-67
2023/01/24 09:28:19;;;;;;;3.45;3.15;;;19.60;49.60;;;;;;4954826;28;20190;-67
2023/01/24 09:30:50;;;;;;;3.83;3.53;;;19.70;49.70;;;;;;4955411;28;20201;-67
2023/01/24 09:33:17;;;;;;;3.70;3.40;;;19.60;49.60;;;;;;4955500;28;20264;-65
2023/01/24 09:36:02;;;;;;;3.60;3.30;;;19.60;49.60;;;;;;4972530;28;20189;-66
2023/01/24 09:38:31;;;;;;;3.67;3.38;;;19.60;49.60;;;;;;4939582;28;20185;-66
2023/01/24 09:41:10;;;;;;;3.40;3.10;;;19.60;49.60;;;;;;4940739;28;20201;-66
2023/01/24 09:43:51;;;;;;;3.95;3.55;;;19.60;49.60;;;;;;4952205;28;20296;-67
2023/01/24 09:46:40;;;;;;;3.35;3.05;;;19.70;49.70;;;;;;4941161;28;20197;-66
2023/01/24 09:49:27;;;;;;;3.83;3.42;;;19.70;49.60;;;;;;4955298;28;20667;-66
2023/01/24 09:51:54;;;;;;;3.75;3.35;;;19.70;49.70;;;;;;4955175;28;20583;-66
2023/01/24 09:54:43;;;;;;;4.18;3.80;;;19.70;49.70;;;;;;4955096;28;20311;-67
2023/01/24 09:57:27;;;;;;;3.58;3.30;;;19.60;49.50;;;;;;4947151;28;20659;-67
2023/01/24 10:00:00;;;;;;;3.95;3.60;;;19.70;49.70;;;;;;4939083;28;20193;-66
2023/01/24 10:02:28;;;;;;;3.65;3.35;;;19.70;49.70;;;;;;4955195;28;20248;-65
2023/01/24 10:04:54;;;;;;;3.35;3.15;;;19.70;49.70;;;;;;4972414;28;20185;-67
2023/01/24 10:07:59;;;;;;;3.00;2.80;;;19.70;49.60;;;;;;4959187;28;20307;-66
2023/01/24 10:11:24;;;;;;;3.72;3.20;;;19.70;49.60;;;;;;4955077;28;20236;-67
2023/01/24 10:14:16;;;;;;;3.63;3.22;;;19.70;49.60;;;;;;4952127;28;20739;-66
2023/01/24 10:17:12;;;;;;;3.88;3.58;;;19.70;49.60;;;;;;4957630;28;20218;-67
2023/01/24 10:19:53;;;;;;;3.50;3.20;;;19.70;49.60;;;;;;4970206;28;20271;-66
2023/01/24 10:22:31;;;;;;;3.58;3.28;;;19.70;49.60;;;;;;4989672;28;20177;-65
2023/01/24 10:25:26;;;;;;;3.92;3.63;;;19.70;49.60;;;;;;4964697;28;20193;-66
2023/01/24 10:27:58;;;;;;;3.38;3.08;;;19.70;49.60;;;;;;4947053;28;20186;-65
2023/01/24 10:30:42;;;;;;;3.58;3.28;;;19.70;49.60;;;;;;4966028;28;20884;-66
2023/01/24 10:33:16;;;;;;;3.47;3.17;;;19.70;49.60;;;;;;4951489;28;20210;-67
2023/01/24 10:36:01;;;;;;;3.40;3.10;;;19.70;49.60;;;;;;4964524;28;20332;-67
2023/01/24 10:38:28;;;;;;;3.70;3.40;;;19.70;49.60;;;;;;4958058;28;20189;-66
2023/01/24 10:41:09;;;;;;;3.20;3.00;;;19.70;49.60;;;;;;4951576;28;20189;-67
2023/01/24 10:43:38;;;;;;;3.40;3.10;;;19.70;49.60;;;;;;4970754;28;20205;-66
2023/01/24 10:46:38;;;;;;;3.05;2.80;;;19.70;49.60;;;;;;4974515;28;20189;-66
2023/01/24 10:49:14;;;;;;;3.53;3.22;;;19.70;49.60;;;;;;4960611;28;20717;-67
2023/01/24 10:51:40;;;;;;;3.35;3.05;;;19.70;49.60;;;;;;4971133;28;20233;-65
2023/01/24 10:54:23;;;;;;;3.30;3.00;;;19.70;49.60;;;;;;4953013;28;20240;-65
2023/01/24 10:56:49;;;;;;;3.28;2.97;;;19.80;49.60;;;;;;4977725;28;20227;-66
2023/01/24 10:59:15;;;;;;;3.35;3.10;;;19.80;49.70;;;;;;4978022;28;20280;-66
2023/01/24 11:01:48;;;;;;;3.55;3.25;;;19.70;49.60;;;;;;4962467;28;20697;-66
2023/01/24 11:04:15;;;;;;;3.35;3.05;;;19.70;49.60;;;;;;4954049;28;20220;-66
2023/01/24 11:06:40;;;;;;;3.05;2.85;;;19.70;49.60;;;;;;4954725;28;20194;-67
2023/01/24 11:09:20;;;;;;;3.58;3.30;;;19.80;49.60;;;;;;4942614;28;20591;-67
2023/01/24 11:11:51;;;;;;;3.80;3.50;;;19.70;49.50;;;;;;4957734;28;20263;-67
2023/01/24 11:14:25;;;;;;;3.33;3.10;;;19.80;49.60;;;;;;4974225;28;20248;-66
2023/01/24 11:16:55;;;;;;;3.33;3.03;;;19.80;49.60;;;;;;4960761;28;20354;-66
2023/01/24 11:19:33;;;;;;;3.50;3.20;;;19.80;49.60;;;;;;4954079;28;20200;-66
2023/01/24 11:22:23;;;;;;;3.35;3.03;;;19.80;49.60;;;;;;4994718;28;20196;-66
2023/01/24 11:24:50;;;;;;;3.90;3.60;;;19.80;49.60;;;;;;4958082;28;20285;-65
2023/01/24 11:27:20;;;;;;;3.35;3.05;;;19.80;49.60;;;;;;4958051;28;20663;-66
2023/01/24 11:30:18;;;;;;;3.10;2.90;;;19.80;49.60;;;;;;4976286;28;20193;-65
2023/01/24 11:33:34;;;;;;;3.13;2.90;;;19.80;49.60;;;;;;4969237;28;20217;-66
2023/01/24 11:36:36;;;;;;;3.40;3.10;;;19.80;49.60;;;;;;4940496;28;20228;-66
2023/01/24 11:39:29;;;;;;;3.15;2.85;;;19.80;49.60;;;;;;4960610;28;20629;-67
2023/01/24 11:42:55;;;;;;;3.35;3.05;;;19.80;49.60;;;;;;4970780;28;20284;-64
2023/01/24 11:45:48;;;;;;;3.80;3.50;;;19.80;49.60;;;;;;4911365;29;20198;-66
2023/01/24 11:49:14;;;;;;;3.20;2.90;;;19.80;49.60;;;;;;4961115;28;20181;-65
2023/01/24 11:52:11;;;;;;;3.35;3.05;;;19.80;49.60;;;;;;4985354;28;20198;-67
2023/01/24 11:55:10;;;;;;;3.50;3.13;;;19.80;49.70;;;;;;4979700;28;20263;-67
2023/01/24 11:58:03;;;;;;;3.40;3.10;;;19.80;49.70;;;;;;4976858;28;20270;-66
2023/01/24 12:01:05;;;;;;;3.45;3.15;;;19.80;49.60;;;;;;4980050;28;20189;-66
2023/01/24 12:04:00;;;;;;;3.40;3.10;;;19.80;49.60;;;;;;4976712;28;20231;-66
2023/01/24 12:06:42;;;;;;;3.30;3.00;;;19.80;49.60;;;;;;4957766;28;20284;-65
2023/01/24 12:09:23;;;;;;;3.53;3.22;;;19.80;49.60;;;;;;4973387;28;20181;-66
2023/01/24 12:12:18;;;;;;;3.47;3.20;;;19.90;49.70;;;;;;4941251;28;20273;-66
2023/01/24 12:15:08;;;;;;;3.13;2.92;;;19.80;50.20;;;;;;4941566;28;20216;-66
2023/01/24 12:17:42;;;;;;;3.60;3.30;;;19.80;49.70;;;;;;4962906;28;20286;-65
2023/01/24 12:20:57;;;;;;;4.22;3.55;;;19.80;49.70;;;;;;4960077;28;20306;-66
2023/01/24 12:23:43;;;;;;;3.63;3.33;;;19.90;49.70;;;;;;4976271;28;20220;-65
2023/01/24 12:26:22;;;;;;;3.42;3.13;;;19.80;49.70;;;;;;4949627;28;20192;-65
2023/01/24 12:29:17;;;;;;;3.55;2.92;;;19.80;49.60;;;;;;4957147;28;20174;-65
2023/01/24 12:32:13;;;;;;;3.33;3.10;;;19.80;49.70;;;;;;4969117;28;20221;-67
2023/01/24 12:34:58;;;;;;;3.50;3.20;;;19.80;49.70;;;;;;4974226;28;20220;-67
2023/01/24 12:37:41;;;;;;;3.28;2.97;;;19.80;49.70;;;;;;4969545;28;20216;-67
2023/01/24 12:40:13;;;;;;;3.25;2.95;;;19.80;49.60;;;;;;4976000;28;20665;-66
2023/01/24 12:43:09;;;;;;;3.53;3.22;;;19.90;49.70;;;;;;4976009;28;20267;-67
2023/01/24 12:45:47;;;;;;;3.00;2.80;;;19.90;49.70;;;;;;4955278;28;20195;-66
2023/01/24 12:48:42;;;;;;;3.33;3.03;;;19.90;49.70;;;;;;4975898;28;20180;-67
2023/01/24 12:51:21;;;;;;;3.20;2.90;;;19.90;49.70;;;;;;4932422;28;20203;-67
2023/01/24 12:54:04;;;;;;;3.70;3.40;;;19.90;49.80;;;;;;4959749;28;20697;-67
2023/01/24 12:57:01;;;;;;;3.58;2.90;;;19.90;49.80;;;;;;4970277;28;20214;-67
2023/01/24 12:59:30;;;;;;;3.10;2.90;;;19.80;49.70;;;;;;4986831;28;20204;-66
2023/01/24 13:02:21;;;;;;;3.65;3.35;;;19.90;49.80;;;;;;4958623;28;20185;-67
2023/01/24 13:05:38;;;;;;;3.60;3.30;;;19.90;49.80;;;;;;4975874;28;20203;-67
2023/01/24 13:08:34;;;;;;;3.38;3.10;;;19.90;49.80;;;;;;4927780;28;20573;-67
2023/01/24 13:11:28;;;;;;;3.50;3.20;;;19.90;49.80;;;;;;4975453;28;20716;-66
2023/01/24 13:14:23;;;;;;;3.28;3.08;;;19.90;49.80;;;;;;4959394;28;20291;-67
2023/01/24 13:16:58;;;;;;;3.08;2.80;;;19.90;49.80;;;;;;4975589;28;20200;-66
2023/01/24 13:19:52;;;;;;;3.30;3.05;;;19.90;49.80;;;;;;4975221;28;20192;-64
2023/01/24 13:22:49;;;;;;;3.10;2.88;;;19.90;49.80;;;;;;4967903;28;20216;-66
2023/01/24 13:25:32;;;;;;;3.40;3.10;;;19.90;49.80;;;;;;4957913;28;20279;-66
2023/01/24 13:28:39;;;;;;;2.90;2.70;;;19.90;49.80;;;;;;4966530;28;20197;-66
2023/01/24 13:31:29;;;;;;;3.38;3.08;;;19.90;49.90;;;;;;4968126;28;20261;-66
2023/01/24 13:34:09;;;;;;;3.17;2.88;;;19.90;49.90;;;;;;4968950;28;20212;-66
2023/01/24 13:36:38;;;;;;;3.63;3.10;;;19.90;49.80;;;;;;4964321;28;20255;-67
2023/01/24 13:39:06;;;;;;;3.03;2.78;;;19.90;49.80;;;;;;4966730;28;20631;-66
2023/01/24 13:41:36;;;;;;;3.90;3.60;;;19.90;50.40;;;;;;4983380;28;20639;-66
2023/01/24 13:44:29;;;;;;;3.63;3.33;;;19.90;49.90;;;;;;4952525;28;20244;-65
2023/01/24 13:47:24;;;;;;;3.35;3.05;;;19.90;49.90;;;;;;4968282;28;20685;-67
2023/01/24 13:49:50;;;;;;;3.45;3.15;;;19.90;49.90;;;;;;4965989;28;20220;-66
2023/01/24 13:52:31;;;;;;;3.88;3.58;;;19.90;49.90;;;;;;4950564;28;20220;-66
2023/01/24 13:55:01;;;;;;;3.85;3.45;;;19.90;49.80;;;;;;4953710;28;20181;-67